createdAt,value
2023-05-13T00:00:38.670Z,11.13
2023-05-13T00:02:32.795Z,11.13
2023-05-13T00:03:05.164Z,11.14
2023-05-13T00:05:31.644Z,11.14
2023-05-13T00:07:32.633Z,11.14
2023-05-13T00:08:01.918Z,10.82
2023-05-13T00:10:28.539Z,11.03
2023-05-13T00:12:32.607Z,11.03
2023-05-13T00:12:54.955Z,11.06
2023-05-13T00:15:21.425Z,11.03
2023-05-13T00:17:32.706Z,11.03
2023-05-13T00:17:47.888Z,10.36
2023-05-13T00:20:14.313Z,10.89
2023-05-13T00:22:32.607Z,10.89
2023-05-13T00:22:40.652Z,10.95
2023-05-13T00:25:07.420Z,10.93
2023-05-13T00:27:33.907Z,9.79
2023-05-13T00:27:34.050Z,9.79
2023-05-13T00:30:00.361Z,10.94
2023-05-13T00:32:27.466Z,10.88
2023-05-13T00:32:32.682Z,10.88
2023-05-13T00:34:53.816Z,10.86
2023-05-13T00:37:20.167Z,10.46
2023-05-13T00:37:32.653Z,10.46
2023-05-13T00:39:46.548Z,10.84
2023-05-13T00:42:13.646Z,10.88
2023-05-13T00:42:32.663Z,10.88
2023-05-13T00:44:40.925Z,10.56
2023-05-13T00:47:07.883Z,10.59
2023-05-13T00:47:32.631Z,10.59
2023-05-13T00:49:34.331Z,10.70
2023-05-13T00:52:01.546Z,10.98
2023-05-13T00:52:32.633Z,10.98
2023-05-13T00:54:29.161Z,10.72
2023-05-13T00:56:56.825Z,11.07
2023-05-13T00:57:32.656Z,11.07
2023-05-13T00:59:28.734Z,10.65
2023-05-13T01:02:07.779Z,11.00
2023-05-13T01:02:32.907Z,11.00
2023-05-13T01:04:59.961Z,11.05
2023-05-13T01:07:48.180Z,10.06
2023-05-13T01:07:48.321Z,10.06
2023-05-13T01:10:35.695Z,11.06
2023-05-13T01:12:32.624Z,11.06
2023-05-13T01:13:08.918Z,11.07
2023-05-13T01:15:41.391Z,11.00
2023-05-13T01:17:32.637Z,11.00
2023-05-13T01:18:18.720Z,10.91
2023-05-13T01:20:46.226Z,10.58
2023-05-13T01:22:32.652Z,10.58
2023-05-13T01:23:13.152Z,10.64
2023-05-13T01:25:40.616Z,10.78
2023-05-13T01:27:32.642Z,10.78
2023-05-13T01:28:08.856Z,10.64
2023-05-13T01:30:36.136Z,10.86
2023-05-13T01:32:32.652Z,10.86
2023-05-13T01:33:03.202Z,10.45
2023-05-13T01:35:31.277Z,10.43
2023-05-13T01:37:32.668Z,10.43
2023-05-13T01:37:58.061Z,10.64
2023-05-13T01:42:32.663Z,10.77
2023-05-13T01:42:57.403Z,9.58
2023-05-13T01:45:23.958Z,10.82
2023-05-13T01:47:32.689Z,10.82
2023-05-13T01:47:50.336Z,10.83
2023-05-13T01:50:16.780Z,10.73
2023-05-13T01:52:32.674Z,10.73
2023-05-13T01:52:43.181Z,10.85
2023-05-13T01:55:10.180Z,10.49
2023-05-13T01:57:32.678Z,10.49
2023-05-13T01:57:36.559Z,10.44
2023-05-13T02:00:04.108Z,10.69
2023-05-13T02:02:30.670Z,10.94
2023-05-13T02:02:32.814Z,10.94
2023-05-13T02:04:57.155Z,10.70
2023-05-13T02:07:23.591Z,11.01
2023-05-13T02:07:32.638Z,11.01
2023-05-13T02:09:58.890Z,10.98
2023-05-13T02:12:26.673Z,10.99
2023-05-13T02:12:32.725Z,10.99
2023-05-13T02:14:55.879Z,11.02
2023-05-13T02:17:22.516Z,11.00
2023-05-13T02:17:32.767Z,11.00
2023-05-13T02:19:49.219Z,10.92
2023-05-13T02:22:15.610Z,10.93
2023-05-13T02:22:32.666Z,10.93
2023-05-13T02:24:42.068Z,11.00
2023-05-13T02:27:12.720Z,10.67
2023-05-13T02:27:32.660Z,10.67
2023-05-13T02:29:39.159Z,10.92
2023-05-13T02:32:06.146Z,10.86
2023-05-13T02:32:32.733Z,10.86
2023-05-13T02:34:32.585Z,10.49
2023-05-13T02:36:58.923Z,10.83
2023-05-13T02:37:32.675Z,10.83
2023-05-13T02:39:25.292Z,10.52
2023-05-13T02:41:51.660Z,10.74
2023-05-13T02:42:32.652Z,10.74
2023-05-13T02:44:18.316Z,10.91
2023-05-13T02:46:44.792Z,10.49
2023-05-13T02:47:32.695Z,10.49
2023-05-13T02:49:11.251Z,10.66
2023-05-13T02:51:37.664Z,10.88
2023-05-13T02:52:32.672Z,10.88
2023-05-13T02:54:04.049Z,10.37
2023-05-13T02:56:30.482Z,10.81
2023-05-13T02:57:32.697Z,10.81
2023-05-13T02:58:56.958Z,10.73
2023-05-13T03:01:23.409Z,10.75
2023-05-13T03:02:32.832Z,10.75
2023-05-13T03:03:50.074Z,10.72
2023-05-13T03:06:16.495Z,10.69
2023-05-13T03:07:32.672Z,10.69
2023-05-13T03:08:42.901Z,10.70
2023-05-13T03:11:09.266Z,10.69
2023-05-13T03:12:32.667Z,10.69
2023-05-13T03:13:35.639Z,10.56
2023-05-13T03:16:02.100Z,10.25
2023-05-13T03:17:32.748Z,10.25
2023-05-13T03:18:31.410Z,10.59
2023-05-13T03:20:57.891Z,10.60
2023-05-13T03:22:32.701Z,10.60
2023-05-13T03:23:24.371Z,10.55
2023-05-13T03:25:51.072Z,10.55
2023-05-13T03:27:32.724Z,10.55
2023-05-13T03:28:17.542Z,10.64
2023-05-13T03:30:44.182Z,10.58
2023-05-13T03:32:32.729Z,10.58
2023-05-13T03:33:10.650Z,10.25
2023-05-13T03:35:37.143Z,10.58
2023-05-13T03:37:32.688Z,10.58
2023-05-13T03:38:03.585Z,10.57
2023-05-13T03:40:30.184Z,10.32
2023-05-13T03:42:32.686Z,10.32
2023-05-13T03:42:56.535Z,10.38
2023-05-13T03:45:22.895Z,10.37
2023-05-13T03:47:32.705Z,10.37
2023-05-13T03:47:49.980Z,10.54
2023-05-13T03:50:17.161Z,10.60
2023-05-13T03:52:32.674Z,10.60
2023-05-13T03:52:45.516Z,10.59
2023-05-13T03:55:14.913Z,10.43
2023-05-13T03:57:32.749Z,10.43
2023-05-13T03:57:45.150Z,9.88
2023-05-13T04:00:12.260Z,10.63
2023-05-13T04:02:32.884Z,10.63
2023-05-13T04:02:38.738Z,9.60
2023-05-13T04:05:06.268Z,10.64
2023-05-13T04:07:32.742Z,10.74
2023-05-13T04:07:32.905Z,10.74
2023-05-13T04:09:59.124Z,11.00
2023-05-13T04:12:25.513Z,11.15
2023-05-13T04:12:32.708Z,11.15
2023-05-13T04:14:51.858Z,11.36
2023-05-13T04:17:18.213Z,11.30
2023-05-13T04:17:32.728Z,11.30
2023-05-13T04:19:44.584Z,10.86
2023-05-13T04:22:10.940Z,11.82
2023-05-13T04:22:32.735Z,11.82
2023-05-13T04:24:37.274Z,11.28
2023-05-13T04:27:03.767Z,12.19
2023-05-13T04:27:32.712Z,12.19
2023-05-13T04:29:30.208Z,12.61
2023-05-13T04:31:56.599Z,12.92
2023-05-13T04:32:32.725Z,12.92
2023-05-13T04:34:23.086Z,13.04
2023-05-13T04:36:49.464Z,13.41
2023-05-13T04:37:32.712Z,13.41
2023-05-13T04:39:15.872Z,13.39
2023-05-13T04:41:42.341Z,14.29
2023-05-13T04:42:32.702Z,14.29
2023-05-13T04:44:08.730Z,14.15
2023-05-13T04:46:37.994Z,13.94
2023-05-13T04:47:32.781Z,13.94
2023-05-13T04:49:04.410Z,13.66
2023-05-13T04:51:32.393Z,13.51
2023-05-13T04:52:32.722Z,13.51
2023-05-13T04:53:59.216Z,14.07
2023-05-13T04:56:26.071Z,13.30
2023-05-13T04:57:32.695Z,13.30
2023-05-13T04:58:52.381Z,12.92
2023-05-13T05:01:18.931Z,12.43
2023-05-13T05:02:32.828Z,12.43
2023-05-13T05:03:45.450Z,12.17
2023-05-13T05:06:11.885Z,11.70
2023-05-13T05:07:32.752Z,11.70
2023-05-13T05:08:38.293Z,11.59
2023-05-13T05:11:05.597Z,11.34
2023-05-13T05:12:32.698Z,11.34
2023-05-13T05:13:31.939Z,11.37
2023-05-13T05:15:58.332Z,11.21
2023-05-13T05:17:32.975Z,11.21
2023-05-13T05:18:24.786Z,11.27
2023-05-13T05:20:51.333Z,11.05
2023-05-13T05:22:32.744Z,11.05
2023-05-13T05:23:17.702Z,11.46
2023-05-13T05:25:44.111Z,11.45
2023-05-13T05:27:32.746Z,11.45
2023-05-13T05:28:10.431Z,11.12
2023-05-13T05:30:39.875Z,11.57
2023-05-13T05:32:32.806Z,11.57
2023-05-13T05:33:07.463Z,11.70
2023-05-13T05:35:38.300Z,11.75
2023-05-13T05:37:32.734Z,11.75
2023-05-13T05:38:05.442Z,11.87
2023-05-13T05:40:32.998Z,11.78
2023-05-13T05:42:32.746Z,11.78
2023-05-13T05:42:59.377Z,11.91
2023-05-13T05:45:25.835Z,11.03
2023-05-13T05:47:32.740Z,11.03
2023-05-13T05:47:54.108Z,12.17
2023-05-13T05:50:21.349Z,11.86
2023-05-13T05:52:32.719Z,11.86
2023-05-13T05:52:47.861Z,11.44
2023-05-13T05:55:14.243Z,12.57
2023-05-13T05:57:32.722Z,12.57
2023-05-13T05:57:40.667Z,12.69
2023-05-13T06:00:07.886Z,13.15
2023-05-13T06:02:32.914Z,13.15
2023-05-13T06:02:34.370Z,13.22
2023-05-13T06:05:00.997Z,13.24
2023-05-13T06:07:27.314Z,13.24
2023-05-13T06:07:32.742Z,13.24
2023-05-13T06:09:53.683Z,13.58
2023-05-13T06:12:20.024Z,13.64
2023-05-13T06:12:32.824Z,13.64
2023-05-13T06:14:46.392Z,13.75
2023-05-13T06:17:14.753Z,13.38
2023-05-13T06:17:32.725Z,13.38
2023-05-13T06:19:44.404Z,13.07
2023-05-13T06:22:11.214Z,13.32
2023-05-13T06:22:32.761Z,13.32
2023-05-13T06:24:38.864Z,12.43
2023-05-13T06:27:05.530Z,12.64
2023-05-13T06:27:32.767Z,12.64
2023-05-13T06:29:32.058Z,13.56
2023-05-13T06:31:58.846Z,13.60
2023-05-13T06:32:32.759Z,13.60
2023-05-13T06:34:25.248Z,13.39
2023-05-13T06:36:51.652Z,12.97
2023-05-13T06:37:32.735Z,12.97
2023-05-13T06:39:17.990Z,13.41
2023-05-13T06:41:44.362Z,13.24
2023-05-13T06:42:32.733Z,13.24
2023-05-13T06:44:10.752Z,13.31
2023-05-13T06:46:37.202Z,13.45
2023-05-13T06:47:32.755Z,13.45
2023-05-13T06:49:03.644Z,13.36
2023-05-13T06:51:32.648Z,13.41
2023-05-13T06:52:32.766Z,13.41
2023-05-13T06:53:59.214Z,13.90
2023-05-13T06:56:25.860Z,14.31
2023-05-13T06:57:42.405Z,14.31
2023-05-13T06:58:53.090Z,14.72
2023-05-13T07:01:19.866Z,15.01
2023-05-13T07:02:32.887Z,15.01
2023-05-13T07:03:46.294Z,15.26
2023-05-13T07:06:12.668Z,15.60
2023-05-13T07:07:32.764Z,15.60
2023-05-13T07:08:40.312Z,15.34
2023-05-13T07:11:06.956Z,15.36
2023-05-13T07:12:32.755Z,15.36
2023-05-13T07:13:34.749Z,15.26
2023-05-13T07:16:02.307Z,15.41
2023-05-13T07:17:32.870Z,15.41
2023-05-13T07:18:29.558Z,15.84
2023-05-13T07:20:58.858Z,15.16
2023-05-13T07:22:32.734Z,15.16
2023-05-13T07:23:25.264Z,15.71
2023-05-13T07:25:52.066Z,16.23
2023-05-13T07:27:32.720Z,16.23
2023-05-13T07:28:20.667Z,16.46
2023-05-13T07:30:47.155Z,16.92
2023-05-13T07:32:32.798Z,16.92
2023-05-13T07:33:14.811Z,16.53
2023-05-13T07:35:41.275Z,16.51
2023-05-13T07:37:32.738Z,16.51
2023-05-13T07:38:09.207Z,16.13
2023-05-13T07:40:35.598Z,15.95
2023-05-13T07:42:32.758Z,15.95
2023-05-13T07:43:02.059Z,16.13
2023-05-13T07:45:28.965Z,16.08
2023-05-13T07:47:32.778Z,16.08
2023-05-13T07:47:56.253Z,16.30
2023-05-13T07:50:22.802Z,16.57
2023-05-13T07:52:32.781Z,16.57
2023-05-13T07:52:50.588Z,16.42
2023-05-13T07:55:17.263Z,16.44
2023-05-13T07:57:32.774Z,16.44
2023-05-13T07:57:43.829Z,16.59
2023-05-13T08:00:10.812Z,16.35
2023-05-13T08:02:32.906Z,16.35
2023-05-13T08:02:38.649Z,16.70
2023-05-13T08:05:06.546Z,17.14
2023-05-13T08:07:33.063Z,17.23
2023-05-13T08:07:33.850Z,17.23
2023-05-13T08:09:59.421Z,16.17
2023-05-13T08:12:26.225Z,17.52
2023-05-13T08:12:32.727Z,17.52
2023-05-13T08:14:52.845Z,17.66
2023-05-13T08:17:19.562Z,18.33
2023-05-13T08:17:32.813Z,18.33
2023-05-13T08:19:46.244Z,18.07
2023-05-13T08:22:12.670Z,18.30
2023-05-13T08:22:32.745Z,18.30
2023-05-13T08:24:40.892Z,18.26
2023-05-13T08:27:07.214Z,18.85
2023-05-13T08:27:32.757Z,18.85
2023-05-13T08:29:33.584Z,18.38
2023-05-13T08:31:59.983Z,19.06
2023-05-13T08:32:32.751Z,19.06
2023-05-13T08:34:26.395Z,19.67
2023-05-13T08:36:52.800Z,18.71
2023-05-13T08:37:32.786Z,18.71
2023-05-13T08:39:19.157Z,19.12
2023-05-13T08:41:46.344Z,18.85
2023-05-13T08:42:32.725Z,18.85
2023-05-13T08:44:13.646Z,18.90
2023-05-13T08:46:43.786Z,18.57
2023-05-13T08:47:34.307Z,18.57
2023-05-13T08:49:10.654Z,18.15
2023-05-13T08:51:37.169Z,18.18
2023-05-13T08:52:32.764Z,18.18
2023-05-13T08:54:03.733Z,17.76
2023-05-13T08:56:30.087Z,18.46
2023-05-13T08:57:32.771Z,18.46
2023-05-13T08:58:56.753Z,18.40
2023-05-13T09:01:24.958Z,17.67
2023-05-13T09:02:32.782Z,17.67
2023-05-13T09:04:11.753Z,18.17
2023-05-13T09:06:38.384Z,17.37
2023-05-13T09:07:32.745Z,17.37
2023-05-13T09:09:05.792Z,18.63
2023-05-13T09:11:33.888Z,18.47
2023-05-13T09:12:32.768Z,18.47
2023-05-13T09:14:02.648Z,19.17
2023-05-13T09:16:29.566Z,19.53
2023-05-13T09:17:32.745Z,19.53
2023-05-13T09:19:04.894Z,19.15
2023-05-13T09:21:35.375Z,18.99
2023-05-13T09:22:32.776Z,18.99
2023-05-13T09:24:18.789Z,19.38
2023-05-13T09:26:46.006Z,19.69
2023-05-13T09:27:32.737Z,19.69
2023-05-13T09:29:25.921Z,19.55
2023-05-13T09:31:58.872Z,19.60
2023-05-13T09:32:32.768Z,19.60
2023-05-13T09:34:27.836Z,19.64
2023-05-13T09:36:58.008Z,19.88
2023-05-13T09:37:32.789Z,19.88
2023-05-13T09:39:24.914Z,19.70
2023-05-13T09:41:52.582Z,20.06
2023-05-13T09:42:32.742Z,20.06
2023-05-13T09:44:19.074Z,20.07
2023-05-13T09:46:45.515Z,20.17
2023-05-13T09:47:32.766Z,20.17
2023-05-13T09:49:12.116Z,20.38
2023-05-13T09:51:38.604Z,20.30
2023-05-13T09:52:32.735Z,20.30
2023-05-13T09:54:06.356Z,20.80
2023-05-13T09:56:35.286Z,20.44
2023-05-13T09:57:32.777Z,20.44
2023-05-13T09:59:02.730Z,20.22
2023-05-13T10:01:30.297Z,20.45
2023-05-13T10:02:32.889Z,20.45
2023-05-13T10:03:59.433Z,20.71
2023-05-13T10:06:28.183Z,20.95
2023-05-13T10:07:32.769Z,20.95
2023-05-13T10:08:57.897Z,21.09
2023-05-13T10:11:25.128Z,21.01
2023-05-13T10:12:32.789Z,21.01
2023-05-13T10:13:58.690Z,21.31
2023-05-13T10:16:27.123Z,21.45
2023-05-13T10:17:32.780Z,21.45
2023-05-13T10:18:54.111Z,21.64
2023-05-13T10:21:20.709Z,21.71
2023-05-13T10:22:32.778Z,21.71
2023-05-13T10:23:48.011Z,21.77
2023-05-13T10:26:14.587Z,21.62
2023-05-13T10:27:32.800Z,21.62
2023-05-13T10:28:42.789Z,22.09
2023-05-13T10:31:09.453Z,21.70
2023-05-13T10:32:32.796Z,21.70
2023-05-13T10:33:35.904Z,21.46
2023-05-13T10:36:39.233Z,21.62
2023-05-13T10:37:32.758Z,21.62
2023-05-13T10:39:19.093Z,21.49
2023-05-13T10:42:19.453Z,21.21
2023-05-13T10:42:32.757Z,21.21
2023-05-13T10:44:45.912Z,21.18
2023-05-13T10:47:13.695Z,21.57
2023-05-13T10:47:32.797Z,21.57
2023-05-13T10:49:40.423Z,21.77
2023-05-13T10:52:09.584Z,20.48
2023-05-13T10:52:32.779Z,20.48
2023-05-13T10:54:39.068Z,21.70
2023-05-13T10:57:06.188Z,21.68
2023-05-13T10:57:32.762Z,21.68
2023-05-13T10:59:34.857Z,21.74
2023-05-13T11:02:03.449Z,22.01
2023-05-13T11:02:33.024Z,22.01
2023-05-13T11:04:30.004Z,21.70
2023-05-13T11:07:15.038Z,22.09
2023-05-13T11:07:32.848Z,22.09
2023-05-13T11:09:41.557Z,22.14
2023-05-13T11:12:14.975Z,21.96
2023-05-13T11:12:32.765Z,21.96
2023-05-13T11:14:43.956Z,21.83
2023-05-13T11:17:11.426Z,21.63
2023-05-13T11:17:32.795Z,21.63
2023-05-13T11:19:44.459Z,21.94
2023-05-13T11:22:21.899Z,22.15
2023-05-13T11:22:32.761Z,22.15
2023-05-13T11:25:09.264Z,21.98
2023-05-13T11:27:32.763Z,21.98
2023-05-13T11:27:41.298Z,20.29
2023-05-13T11:30:23.154Z,21.94
2023-05-13T11:32:32.819Z,21.94
2023-05-13T11:32:53.304Z,22.33
2023-05-13T11:35:26.714Z,22.14
2023-05-13T11:37:32.777Z,22.14
2023-05-13T11:37:54.573Z,21.98
2023-05-13T11:40:32.592Z,21.71
2023-05-13T11:42:32.780Z,21.71
2023-05-13T11:42:59.847Z,22.02
2023-05-13T11:45:27.900Z,22.05
2023-05-13T11:47:32.816Z,22.05
2023-05-13T11:47:56.036Z,21.88
2023-05-13T11:50:23.833Z,22.33
2023-05-13T11:52:32.762Z,22.33
2023-05-13T11:52:52.503Z,22.16
2023-05-13T11:55:29.203Z,22.38
2023-05-13T11:57:32.941Z,22.38
2023-05-13T11:57:56.443Z,22.56
2023-05-13T12:00:30.889Z,22.53
2023-05-13T12:02:32.908Z,22.53
2023-05-13T12:02:58.785Z,22.47
2023-05-13T12:05:26.006Z,22.47
2023-05-13T12:07:32.782Z,22.47
2023-05-13T12:07:57.913Z,22.46
2023-05-13T12:10:27.445Z,21.75
2023-05-13T12:12:32.840Z,21.75
2023-05-13T12:12:54.306Z,21.49
2023-05-13T12:15:27.020Z,22.24
2023-05-13T12:17:32.804Z,22.24
2023-05-13T12:17:54.679Z,21.49
2023-05-13T12:20:23.258Z,22.00
2023-05-13T12:22:32.786Z,22.00
2023-05-13T12:22:52.712Z,21.56
2023-05-13T12:25:43.392Z,21.60
2023-05-13T12:27:32.810Z,21.60
2023-05-13T12:28:35.888Z,22.05
2023-05-13T12:31:05.521Z,22.58
2023-05-13T12:32:32.815Z,22.58
2023-05-13T12:33:43.503Z,22.67
2023-05-13T12:36:31.992Z,22.54
2023-05-13T12:37:33.009Z,22.54
2023-05-13T12:39:01.234Z,21.98
2023-05-13T12:41:35.895Z,22.33
2023-05-13T12:42:32.782Z,22.33
2023-05-13T12:44:10.977Z,22.74
2023-05-13T12:46:37.936Z,23.29
2023-05-13T12:47:32.857Z,23.29
2023-05-13T12:49:05.297Z,23.35
2023-05-13T12:51:33.766Z,23.94
2023-05-13T12:52:32.807Z,23.94
2023-05-13T12:54:00.867Z,23.91
2023-05-13T12:56:27.335Z,23.74
2023-05-13T12:57:32.802Z,23.74
2023-05-13T12:58:54.329Z,22.97
2023-05-13T13:01:21.588Z,23.14
2023-05-13T13:02:32.961Z,23.14
2023-05-13T13:03:48.102Z,23.06
2023-05-13T13:06:15.084Z,23.33
2023-05-13T13:07:32.893Z,23.33
2023-05-13T13:08:43.831Z,23.49
2023-05-13T13:11:10.767Z,23.34
2023-05-13T13:12:32.783Z,23.34
2023-05-13T13:13:39.221Z,22.90
2023-05-13T13:16:06.346Z,21.48
2023-05-13T13:17:32.878Z,21.48
2023-05-13T13:18:32.918Z,22.74
2023-05-13T13:20:59.352Z,23.15
2023-05-13T13:22:32.799Z,23.15
2023-05-13T13:23:28.923Z,22.66
2023-05-13T13:25:55.324Z,22.97
2023-05-13T13:27:32.805Z,22.97
2023-05-13T13:28:21.706Z,23.10
2023-05-13T13:30:48.214Z,23.10
2023-05-13T13:32:32.831Z,23.10
2023-05-13T13:33:15.497Z,22.94
2023-05-13T13:35:45.706Z,22.12
2023-05-13T13:37:32.858Z,22.12
2023-05-13T13:38:12.056Z,21.61
2023-05-13T13:40:39.033Z,21.99
2023-05-13T13:42:43.317Z,21.99
2023-05-13T13:43:06.802Z,21.03
2023-05-13T13:45:33.584Z,21.83
2023-05-13T13:47:32.879Z,21.83
2023-05-13T13:48:00.417Z,21.87
2023-05-13T13:50:27.125Z,22.33
2023-05-13T13:52:32.837Z,22.33
2023-05-13T13:52:53.680Z,22.83
2023-05-13T13:55:21.486Z,23.44
2023-05-13T13:57:32.823Z,23.44
2023-05-13T13:57:48.087Z,23.30
2023-05-13T14:00:15.882Z,23.93
2023-05-13T14:02:32.976Z,23.93
2023-05-13T14:02:43.939Z,23.64
2023-05-13T14:05:11.661Z,23.67
2023-05-13T14:07:32.808Z,23.67
2023-05-13T14:07:38.339Z,23.74
2023-05-13T14:10:05.896Z,23.79
2023-05-13T14:12:32.518Z,23.65
2023-05-13T14:12:32.836Z,23.65
2023-05-13T14:14:59.220Z,23.50
2023-05-13T14:17:25.836Z,23.49
2023-05-13T14:17:32.890Z,23.49
2023-05-13T14:19:55.001Z,23.54
2023-05-13T14:22:24.613Z,23.40
2023-05-13T14:22:32.814Z,23.40
2023-05-13T14:24:53.906Z,22.80
2023-05-13T14:27:21.632Z,22.68
2023-05-13T14:27:32.837Z,22.68
2023-05-13T14:29:48.563Z,22.60
2023-05-13T14:32:15.375Z,22.22
2023-05-13T14:32:32.861Z,22.22
2023-05-13T14:34:42.241Z,22.17
2023-05-13T14:37:09.060Z,22.33
2023-05-13T14:37:32.946Z,22.33
2023-05-13T14:39:35.677Z,22.77
2023-05-13T14:42:02.271Z,22.72
2023-05-13T14:42:32.857Z,22.72
2023-05-13T14:44:28.672Z,22.78
2023-05-13T14:46:55.136Z,23.04
2023-05-13T14:47:32.856Z,23.04
2023-05-13T14:49:21.701Z,23.56
2023-05-13T14:51:48.121Z,23.77
2023-05-13T14:52:32.828Z,23.77
2023-05-13T14:54:14.467Z,23.74
2023-05-13T14:56:41.478Z,24.19
2023-05-13T14:57:32.837Z,24.19
2023-05-13T14:59:08.237Z,23.72
2023-05-13T15:01:37.073Z,24.20
2023-05-13T15:02:32.947Z,24.20
2023-05-13T15:04:03.504Z,24.28
2023-05-13T15:06:29.911Z,23.62
2023-05-13T15:07:33.104Z,23.62
2023-05-13T15:08:57.368Z,23.62
2023-05-13T15:11:24.695Z,23.13
2023-05-13T15:12:32.855Z,23.13
2023-05-13T15:13:51.083Z,22.61
2023-05-13T15:16:17.426Z,22.20
2023-05-13T15:17:32.889Z,22.20
2023-05-13T15:18:43.873Z,22.16
2023-05-13T15:21:10.315Z,21.15
2023-05-13T15:22:34.065Z,21.15
2023-05-13T15:23:36.845Z,21.63
2023-05-13T15:26:03.365Z,22.74
2023-05-13T15:27:32.811Z,22.74
2023-05-13T15:28:29.716Z,23.29
2023-05-13T15:30:56.290Z,23.70
2023-05-13T15:32:32.931Z,23.70
2023-05-13T15:33:22.915Z,23.85
2023-05-13T15:35:49.311Z,23.44
2023-05-13T15:37:32.848Z,23.44
2023-05-13T15:38:15.728Z,22.35
2023-05-13T15:40:42.215Z,21.45
2023-05-13T15:42:32.820Z,21.45
2023-05-13T15:43:08.579Z,21.07
2023-05-13T15:45:35.053Z,20.34
2023-05-13T15:47:32.898Z,20.34
2023-05-13T15:48:01.601Z,18.80
2023-05-13T15:50:28.008Z,18.11
2023-05-13T15:52:32.875Z,18.11
2023-05-13T15:52:54.739Z,17.57
2023-05-13T15:55:21.819Z,17.15
2023-05-13T15:57:32.838Z,17.15
2023-05-13T15:57:50.150Z,16.78
2023-05-13T16:00:17.797Z,16.41
2023-05-13T16:02:32.967Z,16.41
2023-05-13T16:02:44.360Z,16.58
2023-05-13T16:05:15.672Z,16.69
2023-05-13T16:07:32.874Z,16.69
2023-05-13T16:07:42.460Z,16.93
2023-05-13T16:10:09.288Z,16.11
2023-05-13T16:12:32.847Z,16.11
2023-05-13T16:12:36.047Z,17.39
2023-05-13T16:15:02.583Z,16.65
2023-05-13T16:17:29.447Z,17.62
2023-05-13T16:17:32.868Z,17.62
2023-05-13T16:19:55.937Z,17.02
2023-05-13T16:22:30.724Z,17.63
2023-05-13T16:22:32.888Z,17.63
2023-05-13T16:25:17.191Z,17.66
2023-05-13T16:27:32.825Z,17.66
2023-05-13T16:27:43.643Z,18.08
2023-05-13T16:30:13.295Z,18.24
2023-05-13T16:32:32.873Z,18.24
2023-05-13T16:32:39.983Z,17.99
2023-05-13T16:35:07.134Z,17.90
2023-05-13T16:37:36.542Z,17.72
2023-05-13T16:37:36.672Z,17.72
2023-05-13T16:40:03.238Z,16.80
2023-05-13T16:42:29.664Z,17.41
2023-05-13T16:42:32.837Z,17.41
2023-05-13T16:44:56.120Z,16.99
2023-05-13T16:47:22.546Z,17.35
2023-05-13T16:47:32.864Z,17.35
2023-05-13T16:49:50.186Z,17.55
2023-05-13T16:52:16.725Z,17.62
2023-05-13T16:52:32.872Z,17.62
2023-05-13T16:54:43.097Z,17.11
2023-05-13T16:57:09.591Z,17.58
2023-05-13T16:57:32.842Z,17.58
2023-05-13T16:59:35.914Z,17.58
2023-05-13T17:02:02.387Z,17.54
2023-05-13T17:02:33.035Z,17.54
2023-05-13T17:04:28.911Z,17.54
2023-05-13T17:06:58.274Z,17.17
2023-05-13T17:07:32.862Z,17.17
2023-05-13T17:09:27.609Z,16.67
2023-05-13T17:11:54.733Z,17.11
2023-05-13T17:12:32.870Z,17.11
2023-05-13T17:14:21.536Z,16.65
2023-05-13T17:16:48.142Z,16.90
2023-05-13T17:17:32.938Z,16.90
2023-05-13T17:19:14.788Z,16.72
2023-05-13T17:21:41.389Z,17.03
2023-05-13T17:22:32.852Z,17.03
2023-05-13T17:24:08.206Z,15.94
2023-05-13T17:26:36.128Z,16.92
2023-05-13T17:27:32.848Z,16.92
2023-05-13T17:29:03.917Z,16.59
2023-05-13T17:31:30.573Z,16.26
2023-05-13T17:32:32.881Z,16.26
2023-05-13T17:33:56.981Z,16.57
2023-05-13T17:36:23.411Z,16.50
2023-05-13T17:37:32.868Z,16.50
2023-05-13T17:38:50.215Z,15.98
2023-05-13T17:41:16.584Z,16.41
2023-05-13T17:42:32.834Z,16.41
2023-05-13T17:43:42.978Z,16.07
2023-05-13T17:46:09.332Z,16.24
2023-05-13T17:47:32.946Z,16.24
2023-05-13T17:48:36.147Z,15.90
2023-05-13T17:51:02.685Z,16.33
2023-05-13T17:52:32.839Z,16.33
2023-05-13T17:53:33.845Z,15.97
2023-05-13T17:56:01.242Z,16.34
2023-05-13T17:57:32.863Z,16.34
2023-05-13T17:58:27.687Z,15.79
2023-05-13T18:00:54.235Z,16.35
2023-05-13T18:02:32.999Z,16.35
2023-05-13T18:03:21.766Z,15.87
2023-05-13T18:05:48.611Z,16.19
2023-05-13T18:07:32.852Z,16.19
2023-05-13T18:08:15.035Z,16.23
2023-05-13T18:10:41.424Z,16.17
2023-05-13T18:12:32.891Z,16.17
2023-05-13T18:13:07.768Z,16.08
2023-05-13T18:15:34.388Z,16.03
2023-05-13T18:17:32.941Z,16.03
2023-05-13T18:18:01.042Z,15.69
2023-05-13T18:20:27.406Z,15.77
2023-05-13T18:22:32.957Z,15.77
2023-05-13T18:22:53.724Z,15.30
2023-05-13T18:25:20.105Z,15.54
2023-05-13T18:27:33.015Z,15.54
2023-05-13T18:27:46.492Z,15.16
2023-05-13T18:30:15.001Z,15.56
2023-05-13T18:32:33.028Z,15.56
2023-05-13T18:32:41.419Z,15.36
2023-05-13T18:35:08.267Z,15.06
2023-05-13T18:37:33.120Z,15.06
2023-05-13T18:37:35.296Z,15.28
2023-05-13T18:40:04.755Z,15.19
2023-05-13T18:42:31.164Z,14.70
2023-05-13T18:42:33.039Z,14.70
2023-05-13T18:44:57.577Z,14.93
2023-05-13T18:47:23.921Z,14.69
2023-05-13T18:47:33.110Z,14.69
2023-05-13T18:49:50.336Z,15.06
2023-05-13T18:52:16.857Z,15.11
2023-05-13T18:52:33.112Z,15.11
2023-05-13T18:54:43.282Z,15.05
2023-05-13T18:57:09.680Z,14.54
2023-05-13T18:57:33.101Z,14.54
2023-05-13T18:59:36.024Z,14.78
2023-05-13T19:02:02.548Z,14.87
2023-05-13T19:02:33.412Z,14.87
2023-05-13T19:04:29.309Z,14.71
2023-05-13T19:06:55.992Z,14.46
2023-05-13T19:07:33.196Z,14.46
2023-05-13T19:09:22.516Z,14.78
2023-05-13T19:11:48.880Z,14.54
2023-05-13T19:12:33.228Z,14.54
2023-05-13T19:14:15.269Z,14.68
2023-05-13T19:16:41.703Z,14.57
2023-05-13T19:17:33.338Z,14.57
2023-05-13T19:19:08.248Z,14.05
2023-05-13T19:21:34.728Z,14.38
2023-05-13T19:22:33.192Z,14.38
2023-05-13T19:24:03.210Z,14.29
2023-05-13T19:26:30.264Z,14.21
2023-05-13T19:27:33.242Z,14.21
2023-05-13T19:28:56.653Z,14.04
2023-05-13T19:31:24.080Z,13.95
2023-05-13T19:32:33.274Z,13.95
2023-05-13T19:33:50.484Z,13.92
2023-05-13T19:36:16.910Z,13.81
2023-05-13T19:37:33.404Z,13.81
2023-05-13T19:38:43.415Z,13.37
2023-05-13T19:41:09.825Z,13.50
2023-05-13T19:42:33.388Z,13.50
2023-05-13T19:43:36.213Z,13.47
2023-05-13T19:46:02.741Z,13.56
2023-05-13T19:47:33.389Z,13.56
2023-05-13T19:48:30.131Z,13.50
2023-05-13T19:50:57.801Z,12.91
2023-05-13T19:52:33.453Z,12.91
2023-05-13T19:53:24.279Z,13.32
2023-05-13T19:55:50.646Z,13.30
2023-05-13T19:57:33.457Z,13.30
2023-05-13T19:58:17.472Z,13.33
2023-05-13T20:00:44.137Z,13.26
2023-05-13T20:02:33.590Z,13.26
2023-05-13T20:03:11.104Z,13.04
2023-05-13T20:05:39.828Z,13.26
2023-05-13T20:07:33.455Z,13.26
2023-05-13T20:08:06.415Z,13.22
2023-05-13T20:10:35.069Z,13.06
2023-05-13T20:12:33.511Z,13.06
2023-05-13T20:13:03.980Z,12.84
2023-05-13T20:15:31.514Z,13.08
2023-05-13T20:17:33.630Z,13.08
2023-05-13T20:17:57.972Z,13.07
2023-05-13T20:20:24.591Z,12.98
2023-05-13T20:22:33.489Z,12.98
2023-05-13T20:22:51.092Z,12.95
2023-05-13T20:25:17.495Z,12.78
2023-05-13T20:27:33.508Z,12.78
2023-05-13T20:27:43.933Z,11.68
2023-05-13T20:30:11.262Z,12.83
2023-05-13T20:32:33.573Z,12.83
2023-05-13T20:32:37.762Z,12.69
2023-05-13T20:35:04.468Z,12.69
2023-05-13T20:37:30.810Z,12.64
2023-05-13T20:37:33.662Z,12.64
2023-05-13T20:39:59.330Z,12.26
2023-05-13T20:42:26.619Z,12.56
2023-05-13T20:42:33.633Z,12.56
2023-05-13T20:44:53.398Z,12.49
2023-05-13T20:47:20.548Z,12.48
2023-05-13T20:47:33.604Z,12.48
2023-05-13T20:49:46.979Z,12.45
2023-05-13T20:52:13.406Z,12.42
2023-05-13T20:52:33.689Z,12.42
2023-05-13T20:54:39.756Z,12.34
2023-05-13T20:57:06.291Z,11.83
2023-05-13T20:57:33.672Z,11.83
2023-05-13T20:59:32.715Z,12.31
2023-05-13T21:01:59.175Z,12.26
2023-05-13T21:02:33.785Z,12.26
2023-05-13T21:04:25.829Z,11.72
2023-05-13T21:06:52.916Z,11.94
2023-05-13T21:07:33.732Z,11.94
2023-05-13T21:09:19.401Z,12.10
2023-05-13T21:11:45.912Z,12.08
2023-05-13T21:12:33.714Z,12.08
2023-05-13T21:14:12.376Z,12.03
2023-05-13T21:16:38.864Z,11.61
2023-05-13T21:17:33.868Z,11.61